Time;durP1;ratioP1;P1;durP2;ratioP2;P2;SDS_P1;SDS_P2;PMS_P1;PMS_P2;Temp;Humidity;BMP_temperature;BMP_pressure;BME280_temperature;BME280_humidity;BME280_pressure;Samples;Min_cycle;Max_cycle;Signal;HPM_P1;HPM_P2
2021/10/30 00:33:02;;;;;;;4.90;4.38;;;3.90;99.90;;;;;;7325158;19;20316;-82
2021/10/30 00:35:38;;;;;;;5.45;4.95;;;3.90;99.90;;;;;;7390506;19;20341;-82
2021/10/30 00:41:45;;;;;;;5.22;4.55;;;3.90;99.90;;;;;;7379298;19;20329;-81
2021/10/30 00:44:21;;;;;;;5.28;4.78;;;3.80;99.90;;;;;;7331472;19;20312;-82
2021/10/30 00:50:02;;;;;;;5.47;4.80;;;3.80;99.90;;;;;;7371474;19;20315;-82
2021/10/30 00:52:45;;;;;;;4.83;4.40;;;3.80;99.90;;;;;;7385065;19;20353;-82
2021/10/30 00:55:17;;;;;;;5.40;4.65;;;3.70;99.90;;;;;;7290149;19;2004159;-81
2021/10/30 00:57:53;;;;;;;5.25;4.57;;;3.80;99.90;;;;;;7347764;19;20324;-82
2021/10/30 04:09:42;;;;;;;5.47;4.97;;;3.10;99.90;;;;;;7365577;19;20831;-80
2021/10/30 04:15:40;;;;;;;5.47;4.97;;;3.00;99.90;;;;;;7417527;19;20348;-78
2021/10/30 04:49:08;;;;;;;4.97;4.47;;;2.90;99.90;;;;;;7393481;19;20360;-82
2021/10/30 05:04:30;;;;;;;5.55;5.00;;;2.80;99.90;;;;;;7423016;19;20353;-80
2021/10/30 05:07:50;;;;;;;5.73;4.77;;;2.80;99.90;;;;;;7423573;19;20349;-83
2021/10/30 05:11:34;;;;;;;5.30;4.80;;;2.70;99.90;;;;;;7431752;19;20327;-82
2021/10/30 05:14:42;;;;;;;5.17;4.67;;;2.80;99.90;;;;;;7428671;19;20383;-82
2021/10/30 05:33:41;;;;;;;5.13;4.63;;;2.60;99.90;;;;;;7421407;19;20317;-80
2021/10/30 05:37:21;;;;;;;5.63;4.53;;;2.50;99.90;;;;;;7324906;19;2004448;-81
2021/10/30 05:41:09;;;;;;;5.47;4.88;;;2.60;99.90;;;;;;7427618;19;20375;-82
2021/10/30 05:44:49;;;;;;;5.20;4.70;;;2.60;99.90;;;;;;7430612;19;20345;-82
2021/10/30 05:55:01;;;;;;;6.47;5.70;;;2.60;99.90;;;;;;7399601;19;20316;-81
2021/10/30 06:10:42;;;;;;;4.95;4.45;;;2.40;99.90;;;;;;7402472;19;20328;-79
2021/10/30 06:17:09;;;;;;;6.70;6.10;;;2.50;99.90;;;;;;7327565;19;20380;-78
2021/10/30 06:22:28;;;;;;;6.47;5.40;;;2.50;99.90;;;;;;7395315;19;20313;-80
2021/10/30 06:25:25;;;;;;;6.57;5.23;;;2.60;99.90;;;;;;7318568;19;20324;-80
2021/10/30 06:29:19;;;;;;;5.07;4.68;;;2.50;99.90;;;;;;7372306;19;20324;-81
2021/10/30 06:33:00;;;;;;;6.68;6.00;;;2.50;99.90;;;;;;7400955;19;20424;-80
2021/10/30 06:36:18;;;;;;;6.83;6.13;;;2.50;99.90;;;;;;7397844;19;20337;-81
2021/10/30 06:42:57;;;;;;;7.27;6.47;;;2.40;99.90;;;;;;7342238;19;20360;-80
2021/10/30 06:46:54;;;;;;;7.18;5.18;;;2.50;99.90;;;;;;7400595;19;20351;-81
2021/10/30 06:54:25;;;;;;;6.22;5.25;;;2.60;99.90;;;;;;7449322;19;20319;-82
2021/10/30 07:07:13;;;;;;;5.15;4.63;;;2.90;99.90;;;;;;7393577;19;20339;-80
2021/10/30 07:20:27;;;;;;;6.70;5.15;;;3.20;99.90;;;;;;7443176;19;20304;-81
2021/10/30 09:16:04;;;;;;;7.80;6.22;;;11.20;99.90;;;;;;7415782;19;20352;-85
2021/10/30 09:33:05;;;;;;;7.15;6.10;;;12.10;99.90;;;;;;7406160;19;20352;-84
2021/10/30 09:44:32;;;;;;;6.95;5.75;;;12.60;99.90;;;;;;7422323;19;20361;-90
2021/10/30 09:46:58;;;;;;;6.80;5.78;;;12.60;99.90;;;;;;7422585;19;20317;-89
2021/10/30 09:49:36;;;;;;;7.07;5.57;;;12.80;99.90;;;;;;7419718;19;20373;-88
2021/10/30 09:52:08;;;;;;;7.75;5.90;;;12.90;99.90;;;;;;7418594;19;21042;-90
2021/10/30 09:54:36;;;;;;;7.10;5.90;;;13.00;99.90;;;;;;7422268;19;20332;-91
2021/10/30 09:57:02;;;;;;;5.88;5.18;;;13.10;99.90;;;;;;7423465;19;20387;-90
2021/10/30 09:59:29;;;;;;;5.63;5.03;;;13.10;99.90;;;;;;7423062;19;20400;-91
2021/10/30 10:01:55;;;;;;;6.38;4.88;;;13.20;99.90;;;;;;7421533;19;20301;-90
2021/10/30 10:04:21;;;;;;;5.40;4.90;;;13.30;99.90;;;;;;7421220;19;20325;-86
2021/10/30 10:06:49;;;;;;;5.83;5.23;;;13.30;99.90;;;;;;7415994;19;20387;-82
2021/10/30 10:09:18;;;;;;;8.15;4.95;;;13.40;99.90;;;;;;7413254;19;20324;-87
2021/10/30 10:11:47;;;;;;;43.53;9.20;;;13.50;99.90;;;;;;7412981;19;20336;-87
2021/10/30 10:14:14;;;;;;;6.00;5.40;;;13.60;99.90;;;;;;7408041;19;20356;-86
2021/10/30 10:16:41;;;;;;;7.78;5.68;;;13.70;99.90;;;;;;7411387;19;20292;-85
2021/10/30 10:19:08;;;;;;;5.45;4.55;;;13.80;99.90;;;;;;7417907;19;20307;-91
2021/10/30 10:21:34;;;;;;;5.20;4.70;;;13.90;99.90;;;;;;7413735;19;20373;-88
2021/10/30 10:24:04;;;;;;;6.68;5.25;;;14.00;99.90;;;;;;7411749;19;20332;-94
2021/10/30 10:26:31;;;;;;;5.85;5.25;;;14.10;99.90;;;;;;7416064;19;20316;-87
2021/10/30 10:29:06;;;;;;;5.78;5.18;;;14.10;99.90;;;;;;7416854;19;20360;-89
2021/10/30 10:31:32;;;;;;;5.30;4.85;;;14.10;99.90;;;;;;7369918;19;20333;-88
2021/10/30 10:34:22;;;;;;;6.00;5.40;;;14.20;99.90;;;;;;7417605;19;20332;-89
2021/10/30 10:36:47;;;;;;;6.97;5.03;;;14.30;99.90;;;;;;7413504;19;20320;-89
2021/10/30 10:39:18;;;;;;;6.70;5.35;;;14.40;99.90;;;;;;7418768;19;20353;-90
2021/10/30 10:41:43;;;;;;;6.13;4.90;;;14.40;99.90;;;;;;7420892;19;20339;-85
2021/10/30 10:44:14;;;;;;;6.67;5.23;;;14.50;99.90;;;;;;7416055;19;20308;-91
2021/10/30 10:46:40;;;;;;;7.90;4.97;;;14.60;99.90;;;;;;7418464;19;20329;-87
2021/10/30 10:49:26;;;;;;;6.95;4.95;;;14.70;99.90;;;;;;7408013;19;20421;-89
2021/10/30 10:52:14;;;;;;;4.97;4.25;;;14.90;99.90;;;;;;7410275;19;20323;-88
2021/10/30 10:55:01;;;;;;;11.02;5.78;;;15.00;99.90;;;;;;7414309;19;20332;-91
2021/10/30 13:35:56;;;;;;;6.93;5.10;;;15.70;99.50;;;;;;7417752;19;20329;-87
2021/10/30 13:38:21;;;;;;;6.75;5.65;;;15.60;99.30;;;;;;7425304;19;20355;-91
2021/10/30 13:41:02;;;;;;;7.33;4.80;;;15.60;99.00;;;;;;7369097;19;20321;-91
2021/10/30 13:43:29;;;;;;;6.05;4.90;;;15.50;99.60;;;;;;7422846;19;20369;-93
2021/10/30 13:45:56;;;;;;;8.73;5.80;;;15.50;99.30;;;;;;7422901;19;20304;-91
2021/10/30 13:48:22;;;;;;;6.38;5.53;;;15.50;99.20;;;;;;7424880;19;20420;-90
2021/10/30 13:50:52;;;;;;;5.43;4.93;;;15.50;98.90;;;;;;7408246;19;20304;-86
2021/10/30 13:53:19;;;;;;;6.03;5.38;;;15.50;99.40;;;;;;7421634;19;20324;-89
2021/10/30 13:55:49;;;;;;;5.85;4.85;;;15.50;99.60;;;;;;7419272;19;20335;-90
2021/10/30 13:58:17;;;;;;;6.85;5.00;;;15.40;99.80;;;;;;7424027;19;20313;-87
2021/10/30 14:00:44;;;;;;;5.68;5.07;;;15.40;99.90;;;;;;7417650;19;20323;-89
2021/10/30 14:03:10;;;;;;;5.85;5.30;;;15.40;99.60;;;;;;7421153;19;20346;-89
2021/10/30 14:05:38;;;;;;;8.95;5.03;;;15.30;99.80;;;;;;7398410;19;20339;-87
2021/10/30 14:08:08;;;;;;;7.13;5.40;;;15.30;99.90;;;;;;7421515;19;20332;-92
2021/10/30 17:35:55;;;;;;;8.20;7.40;;;9.10;99.90;;;;;;7376106;19;20333;31
2021/10/30 17:38:34;;;;;;;8.13;7.32;;;9.00;99.90;;;;;;7400865;19;20336;31
2021/10/30 17:41:04;;;;;;;8.90;8.00;;;9.00;99.90;;;;;;7310266;19;20286;-80
2021/10/30 17:43:41;;;;;;;11.45;8.73;;;8.90;99.90;;;;;;7355649;19;20333;-80
2021/10/30 17:46:08;;;;;;;16.58;12.02;;;8.90;99.90;;;;;;7351372;19;20301;-80
2021/10/30 17:51:39;;;;;;;13.13;10.50;;;8.70;99.90;;;;;;7143586;19;2004487;-79
2021/10/30 17:54:35;;;;;;;12.77;9.30;;;8.70;99.90;;;;;;7339335;19;20885;-80
2021/10/30 17:57:12;;;;;;;11.45;9.30;;;8.70;99.90;;;;;;7188670;19;2004455;-79
2021/10/30 17:59:43;;;;;;;14.80;11.25;;;8.60;99.90;;;;;;7363427;19;20364;-80
2021/10/30 18:02:11;;;;;;;14.32;11.18;;;8.40;99.90;;;;;;7367287;19;20320;-79
2021/10/30 18:04:55;;;;;;;13.07;10.90;;;8.30;99.90;;;;;;7327204;19;20360;-80
2021/10/30 18:07:51;;;;;;;12.30;11.00;;;8.30;99.90;;;;;;7382451;19;20760;-80
2021/10/30 18:10:46;;;;;;;11.25;9.45;;;8.10;99.90;;;;;;7370306;19;20361;-79
2021/10/30 18:16:57;;;;;;;11.05;9.60;;;8.10;99.90;;;;;;7211094;19;2004394;-81
2021/10/30 18:19:34;;;;;;;8.13;7.00;;;8.00;99.90;;;;;;7324474;19;20659;-81
2021/10/30 18:22:10;;;;;;;10.60;9.52;;;8.00;99.90;;;;;;7266736;19;2004484;-80
2021/10/30 18:28:43;;;;;;;7.32;6.63;;;7.80;99.90;;;;;;7302099;19;2004274;-81
2021/10/30 18:31:57;;;;;;;7.78;6.75;;;7.90;99.90;;;;;;7382133;19;20328;-80
2021/10/30 18:34:35;;;;;;;7.37;6.53;;;7.80;99.90;;;;;;7303343;19;20332;-80
2021/10/30 18:37:12;;;;;;;13.68;8.38;;;7.80;99.90;;;;;;7376531;19;20364;-81
2021/10/30 18:39:52;;;;;;;11.43;9.18;;;7.70;99.90;;;;;;7365667;19;20356;-82
2021/10/30 18:42:48;;;;;;;8.15;6.72;;;7.60;99.90;;;;;;7289425;19;2004501;-81
2021/10/30 18:45:42;;;;;;;8.00;6.53;;;7.60;99.90;;;;;;7285564;19;20332;-81
2021/10/30 18:48:47;;;;;;;7.03;6.33;;;7.40;99.90;;;;;;7202072;19;2004303;-81
2021/10/30 18:52:09;;;;;;;8.88;6.53;;;7.60;99.90;;;;;;7277931;19;20368;-81
2021/10/30 18:55:04;;;;;;;9.25;7.15;;;7.60;99.90;;;;;;7303963;19;2004577;-81
2021/10/30 18:57:44;;;;;;;8.35;6.63;;;7.70;99.90;;;;;;7329458;19;20414;-81
2021/10/30 19:00:39;;;;;;;9.95;8.85;;;7.40;99.90;;;;;;7387882;19;20320;-81
2021/10/30 19:03:56;;;;;;;9.27;7.82;;;7.60;99.90;;;;;;7294697;19;2004425;-80
2021/10/30 19:06:38;;;;;;;8.02;6.72;;;7.60;99.90;;;;;;7344881;19;20354;-81
2021/10/30 19:09:44;;;;;;;7.16;6.46;;;7.60;99.90;;;;;;7275645;19;2004416;-82
2021/10/30 19:12:51;;;;;;;7.35;6.03;;;7.70;99.90;;;;;;7396738;19;20309;-81
2021/10/30 19:15:40;;;;;;;7.20;6.50;;;7.70;99.90;;;;;;7344280;19;20329;-81
2021/10/30 19:18:24;;;;;;;8.43;7.50;;;7.70;99.90;;;;;;7412526;19;20305;-81
2021/10/30 19:21:10;;;;;;;7.60;6.43;;;7.80;99.90;;;;;;7342395;19;20346;-80
2021/10/30 19:23:46;;;;;;;6.77;6.10;;;7.70;99.90;;;;;;7212702;19;2004439;-81
2021/10/30 19:33:14;;;;;;;8.93;6.70;;;8.00;99.90;;;;;;7266778;19;20333;-81
2021/10/30 19:35:57;;;;;;;7.72;6.90;;;7.90;99.90;;;;;;7275906;19;2004193;-80
2021/10/30 19:38:52;;;;;;;9.23;7.55;;;8.00;99.90;;;;;;7235130;19;2004301;-81
2021/10/30 19:41:54;;;;;;;8.13;7.30;;;8.20;99.90;;;;;;7216911;19;2004624;-82
2021/10/30 19:44:36;;;;;;;8.63;7.43;;;8.30;99.90;;;;;;7257850;19;2004506;-80
2021/10/30 19:47:13;;;;;;;9.27;7.57;;;8.40;99.90;;;;;;7252815;19;2004472;-81
2021/10/30 19:49:54;;;;;;;11.55;8.45;;;8.50;99.90;;;;;;7328818;19;20352;-80
2021/10/30 19:52:43;;;;;;;9.13;7.53;;;8.80;99.90;;;;;;7379731;19;20364;-80
2021/10/30 19:55:30;;;;;;;8.48;7.03;;;9.00;99.90;;;;;;7408259;19;20339;-80
2021/10/30 19:58:15;;;;;;;8.90;8.00;;;9.10;99.90;;;;;;7395562;19;20325;-80
2021/10/30 20:00:52;;;;;;;9.38;7.45;;;9.20;99.90;;;;;;7352701;19;20329;-80
2021/10/30 20:03:34;;;;;;;8.20;7.32;;;9.30;99.90;;;;;;7377799;19;20339;-80
2021/10/30 20:06:34;;;;;;;9.20;7.37;;;9.40;99.90;;;;;;7356046;19;20655;-80
2021/10/30 20:09:02;;;;;;;8.30;7.38;;;9.30;99.90;;;;;;7277449;19;21043;-79
2021/10/30 20:11:41;;;;;;;9.50;8.45;;;9.50;99.90;;;;;;7375439;19;20340;-80
2021/10/30 20:34:41;;;;;;;10.20;7.95;;;10.70;99.90;;;;;;7356668;19;20312;-81
2021/10/30 20:37:10;;;;;;;8.35;7.55;;;10.90;99.90;;;;;;7388313;19;20733;-83
2021/10/30 20:39:37;;;;;;;8.82;7.93;;;11.00;99.90;;;;;;7390707;19;20315;-80
2021/10/30 20:42:04;;;;;;;9.35;7.22;;;11.20;99.90;;;;;;7362639;19;20902;-83
2021/10/30 20:44:31;;;;;;;11.98;8.93;;;11.20;99.90;;;;;;7385334;19;20902;-80
2021/10/30 20:47:00;;;;;;;9.80;7.95;;;11.20;99.90;;;;;;7256563;19;2004544;-80
2021/10/30 20:49:30;;;;;;;8.97;8.03;;;11.40;99.90;;;;;;7333913;19;20317;-83
2021/10/30 20:52:15;;;;;;;6.80;6.10;;;11.30;99.90;;;;;;7316828;19;20333;-82
2021/10/30 20:54:41;;;;;;;7.43;6.72;;;11.30;99.90;;;;;;7369742;19;20412;-81
2021/10/30 21:12:39;;;;;;;6.20;5.60;;;11.00;99.90;;;;;;7371351;19;20345;-90
2021/10/30 21:15:05;;;;;;;8.37;7.47;;;11.10;99.90;;;;;;7426139;19;20297;-89
2021/10/30 21:17:35;;;;;;;6.83;5.80;;;11.00;99.90;;;;;;7426031;19;20303;-89
2021/10/30 21:20:01;;;;;;;6.13;4.80;;;11.00;99.90;;;;;;7375534;19;20305;-88
2021/10/30 21:22:28;;;;;;;6.35;5.75;;;10.80;99.90;;;;;;7424989;19;20335;-87
2021/10/30 21:24:55;;;;;;;6.93;5.90;;;11.00;99.90;;;;;;7424095;19;20280;-89
2021/10/30 21:27:30;;;;;;;6.32;5.72;;;10.90;99.90;;;;;;7429298;19;20337;-89
2021/10/30 21:29:57;;;;;;;7.57;6.88;;;10.90;99.90;;;;;;7405956;19;20280;-90
2021/10/30 21:32:22;;;;;;;9.52;6.57;;;10.90;99.90;;;;;;7392875;19;20356;-88
2021/10/30 21:34:49;;;;;;;7.60;6.78;;;10.90;99.90;;;;;;7428293;19;20284;-87
2021/10/30 21:37:16;;;;;;;8.98;6.65;;;11.00;99.90;;;;;;7396960;19;20336;-89
2021/10/30 21:54:23;;;;;;;9.45;6.90;;;10.90;99.90;;;;;;7364136;19;20352;-86
2021/10/30 22:22:33;;;;;;;8.70;7.47;;;10.60;99.90;;;;;;7408980;19;20349;-89
2021/10/30 22:31:05;;;;;;;6.72;6.10;;;10.80;99.90;;;;;;7369683;19;20345;-88
2021/10/30 22:33:31;;;;;;;8.05;6.47;;;10.80;99.90;;;;;;7390589;19;20292;-88
2021/10/30 22:35:58;;;;;;;10.38;7.78;;;10.80;99.90;;;;;;7408675;19;20364;-89
2021/10/30 22:38:23;;;;;;;7.82;7.03;;;10.70;99.90;;;;;;7412451;19;20351;-86
2021/10/30 22:40:49;;;;;;;7.95;7.15;;;10.70;99.90;;;;;;7413971;19;20341;-84
2021/10/30 22:43:15;;;;;;;6.75;5.57;;;10.60;99.90;;;;;;7401177;19;20340;-87
2021/10/30 22:45:41;;;;;;;5.80;5.30;;;10.60;99.90;;;;;;7422437;19;20353;-90
2021/10/30 22:48:07;;;;;;;7.65;6.85;;;10.60;99.90;;;;;;7405586;19;20361;-89
2021/10/30 22:57:22;;;;;;;9.73;8.57;;;10.50;99.90;;;;;;7298225;19;20304;-82
2021/10/30 23:01:01;;;;;;;8.65;7.78;;;10.50;99.90;;;;;;7253283;19;20343;-82
2021/10/30 23:04:17;;;;;;;7.90;6.73;;;10.50;99.90;;;;;;7162353;19;2004372;-81
2021/10/30 23:06:53;;;;;;;8.55;7.13;;;10.50;99.90;;;;;;7156110;19;2004264;-82
2021/10/30 23:09:46;;;;;;;8.27;7.10;;;10.60;99.90;;;;;;7354535;19;20308;-83
2021/10/30 23:12:18;;;;;;;10.80;8.23;;;10.70;99.90;;;;;;7268197;19;20336;-84
2021/10/30 23:14:47;;;;;;;12.38;8.38;;;10.70;99.90;;;;;;7300439;19;20339;-82
2021/10/30 23:17:18;;;;;;;10.00;7.82;;;10.80;99.90;;;;;;7342478;19;20312;-82
2021/10/30 23:19:50;;;;;;;9.35;7.18;;;10.80;99.90;;;;;;7281887;19;2004534;-84
2021/10/30 23:22:30;;;;;;;8.50;6.95;;;10.80;99.90;;;;;;7373426;19;20367;-82
2021/10/30 23:25:09;;;;;;;8.13;7.33;;;10.80;99.90;;;;;;7220841;19;2004589;-85
2021/10/30 23:27:39;;;;;;;13.18;7.32;;;10.80;99.90;;;;;;7348606;19;20316;-81
2021/10/30 23:30:17;;;;;;;7.72;6.93;;;10.70;99.90;;;;;;7169008;19;2004590;-81
2021/10/30 23:32:46;;;;;;;8.90;7.95;;;10.60;99.90;;;;;;7367951;19;20340;-81
2021/10/30 23:35:35;;;;;;;8.18;7.28;;;10.60;99.90;;;;;;7363841;19;20324;-82
2021/10/30 23:42:45;;;;;;;7.78;7.03;;;10.60;99.90;;;;;;7200411;19;2004477;-83
2021/10/30 23:46:02;;;;;;;8.88;6.85;;;10.60;99.90;;;;;;7267301;19;2004442;-84
2021/10/30 23:54:02;;;;;;;7.43;6.40;;;10.40;99.90;;;;;;7239932;19;20359;-83
